Time;durP1;ratioP1;P1;durP2;ratioP2;P2;SDS_P1;SDS_P2;PMS_P1;PMS_P2;Temp;Humidity;BMP_temperature;BMP_pressure;BME280_temperature;BME280_humidity;BME280_pressure;Samples;Min_cycle;Max_cycle;Signal;HPM_P1;HPM_P2
2022/11/06 00:00:04;;;;;;;;;;;;;;;-143.48;77.29;78936.38;5134791;27;19911;-30
2022/11/06 00:02:29;;;;;;;;;;;;;;;-143.48;77.02;78938.34;5134800;27;19919;-30
2022/11/06 00:06:46;;;;;;;;;;;;;;;-143.48;76.80;78934.38;5134827;27;20284;-30
2022/11/06 00:07:40;;;;;;;;;;;;;;;-143.48;77.27;78946.28;5134756;27;19911;-30
2022/11/06 00:10:05;;;;;;;;;;;;;;;-143.48;77.24;78930.41;5135893;27;20010;-31
2022/11/06 00:12:30;;;;;;;;;;;;;;;-143.48;77.42;78936.38;5135266;27;19920;-30
2022/11/06 00:14:55;;;;;;;;;;;;;;;-143.48;77.49;78944.31;5135102;27;20426;-30
2022/11/06 00:17:20;;;;;;;;;;;;;;;-143.48;77.49;78944.31;5135682;27;19919;-30
2022/11/06 00:19:46;;;;;;;;;;;;;;;-143.48;77.64;78948.28;5135445;27;19995;-30
2022/11/06 00:22:11;;;;;;;;;;;;;;;-143.48;77.96;78946.28;5135433;27;19915;-30
2022/11/06 00:24:36;;;;;;;;;;;;;;;-143.48;77.91;78942.31;5135400;27;19911;-30
2022/11/06 00:27:01;;;;;;;;;;;;;;;-143.48;77.81;78928.44;5135032;27;19912;-30
2022/11/06 00:29:26;;;;;;;;;;;;;;;-143.48;78.31;78950.25;5135647;27;19912;-30
2022/11/06 00:31:52;;;;;;;;;;;;;;;-143.48;77.90;78934.38;5135333;27;20255;-30
2022/11/06 00:34:17;;;;;;;;;;;;;;;-143.48;78.07;78930.41;5135273;27;19911;-30
2022/11/06 00:36:42;;;;;;;;;;;;;;;-143.48;77.78;78916.53;5135498;28;19915;-30
2022/11/06 00:39:08;;;;;;;;;;;;;;;-143.48;77.83;78918.53;5116755;28;19911;-30
2022/11/06 00:41:33;;;;;;;;;;;;;;;-143.48;78.10;78924.47;5134916;28;19934;-31
2022/11/06 00:43:59;;;;;;;;;;;;;;;-143.48;78.06;78922.50;5134950;28;20366;-30
2022/11/06 00:46:25;;;;;;;;;;;;;;;-143.48;78.26;78924.47;5134805;28;19957;-30
2022/11/06 00:48:51;;;;;;;;;;;;;;;-143.48;78.30;78926.47;5134899;28;19912;-30
2022/11/06 00:51:18;;;;;;;;;;;;;;;-143.48;78.35;78920.50;5135546;28;20049;-30
2022/11/06 00:53:43;;;;;;;;;;;;;;;-143.48;78.22;78914.56;5134850;28;19977;-30
2022/11/06 00:56:15;;;;;;;;;;;;;;;-143.48;78.75;78922.50;5134925;28;19919;-30
2022/11/06 00:58:40;;;;;;;;;;;;;;;-143.48;78.66;78916.53;5134751;28;19912;-30
2022/11/06 01:01:05;;;;;;;;;;;;;;;-143.48;78.46;78918.53;5134591;27;19956;-30
2022/11/06 01:03:31;;;;;;;;;;;;;;;-143.48;78.63;78910.59;5135310;28;20346;-30
2022/11/06 01:06:02;;;;;;;;;;;;;;;-143.48;78.17;78896.69;5136857;27;19976;-30
2022/11/06 01:08:27;;;;;;;;;;;;;;;-143.48;78.46;78900.66;5137532;27;19960;-30
2022/11/06 01:10:52;;;;;;;;;;;;;;;-143.48;78.55;78896.69;5137565;27;19912;-31
2022/11/06 01:13:17;;;;;;;;;;;;;;;-143.48;78.40;78898.69;5137806;27;20172;-30
2022/11/06 01:15:43;;;;;;;;;;;;;;;-143.48;78.55;78904.63;5137974;27;19926;-30
2022/11/06 01:18:08;;;;;;;;;;;;;;;-143.48;78.64;78910.59;5137785;27;20319;-30
2022/11/06 01:20:35;;;;;;;;;;;;;;;-143.48;78.78;78904.63;5138495;27;20363;-30
2022/11/06 01:23:01;;;;;;;;;;;;;;;-143.48;78.47;78902.66;5138442;27;19915;-30
2022/11/06 01:25:26;;;;;;;;;;;;;;;-143.48;78.81;78912.56;5138712;27;19918;-30
2022/11/06 01:27:51;;;;;;;;;;;;;;;-143.48;79.03;78902.66;5138325;27;20010;-30
2022/11/06 01:30:17;;;;;;;;;;;;;;;-143.48;79.00;78908.59;5138694;27;19919;-30
2022/11/06 01:32:42;;;;;;;;;;;;;;;-143.48;79.06;78898.69;5137889;27;20422;-30
2022/11/06 01:35:07;;;;;;;;;;;;;;;-143.48;79.14;78902.66;5138160;27;19911;-30
2022/11/06 01:37:32;;;;;;;;;;;;;;;-143.48;78.97;78888.78;5138727;27;19922;-30
2022/11/06 01:39:58;;;;;;;;;;;;;;;-143.48;79.17;78900.66;5138137;27;19911;-30
2022/11/06 01:42:23;;;;;;;;;;;;;;;-143.48;79.19;78894.72;5138703;27;19917;-30
2022/11/06 01:45:18;;;;;;;;;;;;;;;-143.48;79.35;78906.63;5138304;27;20307;-30
2022/11/06 01:47:44;;;;;;;;;;;;;;;-143.48;79.73;78906.63;5138019;27;19917;-30
2022/11/06 01:50:10;;;;;;;;;;;;;;;-143.48;79.88;78890.75;5138267;27;19990;-30
2022/11/06 01:52:36;;;;;;;;;;;;;;;-143.48;79.75;78890.75;5138201;27;19956;-30
2022/11/06 01:55:11;;;;;;;;;;;;;;;-143.48;79.90;78894.72;5137878;27;20006;-30
2022/11/06 01:57:36;;;;;;;;;;;;;;;-143.48;79.99;78908.59;5138375;27;20026;-30
2022/11/06 02:00:03;;;;;;;;;;;;;;;-143.48;80.13;78906.63;5137701;27;20008;-30
2022/11/06 02:02:28;;;;;;;;;;;;;;;-143.48;80.16;78896.69;5137768;27;19911;-30
2022/11/06 02:04:53;;;;;;;;;;;;;;;-143.48;79.61;78876.88;5137639;27;20014;-30
2022/11/06 02:07:19;;;;;;;;;;;;;;;-143.48;79.85;78890.75;5137830;27;20002;-30
2022/11/06 02:09:44;;;;;;;;;;;;;;;-143.48;80.27;78894.72;5119171;27;19912;-30
2022/11/06 02:12:32;;;;;;;;;;;;;;;-143.48;80.20;78882.81;5137431;27;19911;-30
2022/11/06 02:15:09;;;;;;;;;;;;;;;-143.48;80.05;78884.81;5135983;27;20297;-30
2022/11/06 02:17:40;;;;;;;;;;;;;;;-143.48;80.31;78882.81;5136318;27;19915;-30
2022/11/06 02:20:06;;;;;;;;;;;;;;;-143.48;80.43;78890.75;5137334;27;19934;-30
2022/11/06 02:22:39;;;;;;;;;;;;;;;-143.48;80.91;78880.84;5137361;27;19912;-31
2022/11/06 02:25:11;;;;;;;;;;;;;;;-143.48;81.10;78878.84;5137573;27;19911;-31
2022/11/06 02:27:38;;;;;;;;;;;;;;;-143.48;81.10;78884.81;5137481;27;19934;-31
2022/11/06 02:30:11;;;;;;;;;;;;;;;-143.48;81.23;78876.88;5137226;27;19915;-34
2022/11/06 02:32:36;;;;;;;;;;;;;;;-143.48;80.49;78864.97;5137067;27;20366;-29
2022/11/06 02:35:09;;;;;;;;;;;;;;;-143.48;80.53;78857.03;5137019;27;20006;-31
2022/11/06 02:37:35;;;;;;;;;;;;;;;-143.48;80.28;78857.03;5137277;27;20000;-31
2022/11/06 02:40:04;;;;;;;;;;;;;;;-143.48;81.21;78855.06;5137161;27;19938;-31
2022/11/06 02:42:32;;;;;;;;;;;;;;;-143.48;81.20;78859.03;5136998;27;19918;-31
2022/11/06 02:44:59;;;;;;;;;;;;;;;-143.48;81.42;78866.94;5136941;27;20269;-31
2022/11/06 02:47:28;;;;;;;;;;;;;;;-143.48;82.11;78857.03;5137152;27;20354;-31
2022/11/06 02:50:04;;;;;;;;;;;;;;;-143.48;82.86;78876.88;5136802;27;20368;-30
2022/11/06 02:52:31;;;;;;;;;;;;;;;-143.48;83.90;78890.75;5137094;27;19951;-31
2022/11/06 02:55:32;;;;;;;;;;;;;;;-143.48;84.13;78880.84;5137347;27;19911;-30
2022/11/06 02:57:59;;;;;;;;;;;;;;;-143.48;84.26;78888.78;5033527;28;19921;-31
2022/11/06 03:00:26;;;;;;;;;;;;;;;-143.48;84.79;78888.78;5116200;27;20373;-31
2022/11/06 03:02:57;;;;;;;;;;;;;;;-143.48;84.59;78886.78;5136743;27;19980;-31
2022/11/06 03:05:25;;;;;;;;;;;;;;;-143.48;84.27;78876.88;5135689;27;20394;-31
2022/11/06 03:08:03;;;;;;;;;;;;;;;-143.48;84.16;78872.91;5136449;27;20062;-31
2022/11/06 03:10:32;;;;;;;;;;;;;;;-143.48;83.95;78862.97;5136823;27;19915;-31
2022/11/06 03:13:00;;;;;;;;;;;;;;;-143.48;83.35;78857.03;5136487;27;19915;-31
2022/11/06 03:15:55;;;;;;;;;;;;;;;-143.48;83.31;78862.97;5136104;27;19926;-31
2022/11/06 03:18:20;;;;;;;;;;;;;;;-143.48;82.96;78861.00;5113975;27;19923;-31
2022/11/06 03:20:55;;;;;;;;;;;;;;;-143.48;82.43;78862.97;5136819;27;19918;-32
2022/11/06 03:23:27;;;;;;;;;;;;;;;-143.48;82.74;78857.03;5136653;27;19911;-31
2022/11/06 03:26:02;;;;;;;;;;;;;;;-143.48;82.48;78862.97;5136416;27;20014;-31
2022/11/06 03:28:33;;;;;;;;;;;;;;;-143.48;81.98;78855.06;5136005;27;19912;-31
2022/11/06 03:31:00;;;;;;;;;;;;;;;-143.48;81.81;78861.00;5136267;27;19911;-32
2022/11/06 03:33:32;;;;;;;;;;;;;;;-143.48;81.73;78853.06;5135960;27;20006;-31
2022/11/06 03:36:04;;;;;;;;;;;;;;;-143.48;81.60;78843.16;5135939;27;19911;-32
2022/11/06 03:38:32;;;;;;;;;;;;;;;-143.48;81.68;78849.09;5136185;27;19915;-32
2022/11/06 03:41:00;;;;;;;;;;;;;;;-143.48;81.42;78831.25;5135793;27;19947;-31
2022/11/06 03:43:28;;;;;;;;;;;;;;;-143.48;81.21;78831.25;5136069;27;20346;-31
2022/11/06 03:45:55;;;;;;;;;;;;;;;-143.48;81.70;78843.16;5136202;27;19912;-31
2022/11/06 03:48:24;;;;;;;;;;;;;;;-143.48;81.47;78833.22;5136330;27;19927;-31
2022/11/06 03:50:59;;;;;;;;;;;;;;;-143.48;81.61;78829.25;5135930;27;19915;-31
2022/11/06 03:53:28;;;;;;;;;;;;;;;-143.48;81.50;78833.22;5135634;27;20016;-31
2022/11/06 03:55:59;;;;;;;;;;;;;;;-143.48;81.77;78833.22;5135671;27;20319;-31
2022/11/06 03:58:28;;;;;;;;;;;;;;;-143.48;81.37;78831.25;5136026;27;19968;-31
2022/11/06 04:00:55;;;;;;;;;;;;;;;-143.48;81.64;78825.31;5135412;27;19918;-31
2022/11/06 04:03:33;;;;;;;;;;;;;;;-143.48;81.58;78825.31;5135479;27;19911;-31
2022/11/06 04:06:05;;;;;;;;;;;;;;;-143.48;81.44;78821.34;5135362;27;20378;-31
2022/11/06 04:14:04;;;;;;;;;;;;;;;-143.48;81.57;78811.41;5135451;27;19972;-31
2022/11/06 04:16:33;;;;;;;;;;;;;;;-143.48;81.79;78825.31;5135501;27;20317;-31
2022/11/06 04:18:59;;;;;;;;;;;;;;;-143.48;81.91;78811.41;5135108;27;19911;-31
2022/11/06 04:21:27;;;;;;;;;;;;;;;-143.48;81.42;78797.53;5135185;27;19934;-31
2022/11/06 04:26:56;;;;;;;;;;;;;;;-143.48;81.47;78799.50;5135716;27;20311;-31
2022/11/06 04:29:41;;;;;;;;;;;;;;;-143.48;81.32;78801.50;5134988;27;19922;-31
2022/11/06 04:32:11;;;;;;;;;;;;;;;-143.48;81.68;78801.50;5135047;27;19911;-31
2022/11/06 04:34:39;;;;;;;;;;;;;;;-143.48;81.63;78785.63;5116618;27;19951;-31
2022/11/06 04:37:10;;;;;;;;;;;;;;;-143.48;81.13;78783.66;5134882;27;20022;-31
2022/11/06 04:39:35;;;;;;;;;;;;;;;-143.48;81.55;78785.63;5134600;27;20318;-31
2022/11/06 04:42:26;;;;;;;;;;;;;;;-143.48;81.77;78793.56;5135500;28;19947;-31
2022/11/06 04:44:55;;;;;;;;;;;;;;;-143.48;81.74;78787.63;5135239;28;19985;-31
2022/11/06 04:47:22;;;;;;;;;;;;;;;-143.48;81.15;78777.69;5134828;28;19916;-31
2022/11/06 04:49:49;;;;;;;;;;;;;;;-143.48;81.42;78773.72;5116559;28;19912;-30
2022/11/06 04:52:16;;;;;;;;;;;;;;;-143.48;81.33;78777.69;5135023;28;20441;-29
2022/11/06 04:54:43;;;;;;;;;;;;;;;-143.48;81.37;78779.69;5116425;28;19915;-31
2022/11/06 04:57:09;;;;;;;;;;;;;;;-143.48;81.38;78765.78;5135019;28;19923;-30
2022/11/06 04:59:35;;;;;;;;;;;;;;;-143.48;81.07;78767.78;5134749;28;19959;-30
2022/11/06 05:02:00;;;;;;;;;;;;;;;-143.48;81.43;78753.91;5134576;27;19911;-31
2022/11/06 05:04:25;;;;;;;;;;;;;;;-143.48;81.39;78757.88;5135315;28;19918;-31
2022/11/06 05:06:51;;;;;;;;;;;;;;;-143.48;81.00;78757.88;5134933;28;20370;-31
2022/11/06 05:09:16;;;;;;;;;;;;;;;-143.48;81.03;78759.84;5134708;28;19957;-31
2022/11/06 05:11:41;;;;;;;;;;;;;;;-143.48;81.36;78749.94;5135233;28;19964;-32
2022/11/06 05:14:06;;;;;;;;;;;;;;;-143.48;81.10;78749.94;5134687;28;20002;-31
2022/11/06 05:16:32;;;;;;;;;;;;;;;-143.48;81.00;78751.91;5134861;28;19915;-31
2022/11/06 05:18:57;;;;;;;;;;;;;;;-143.48;81.05;78755.88;5135189;28;19917;-32
2022/11/06 05:24:06;;;;;;;;;;;;;;;-143.48;81.36;78747.94;5134527;28;19933;-31
2022/11/06 05:26:31;;;;;;;;;;;;;;;-143.48;81.58;78751.91;5134837;28;19916;-31
2022/11/06 05:28:56;;;;;;;;;;;;;;;-143.48;81.82;78777.69;5134810;28;20014;-30
2022/11/06 05:31:22;;;;;;;;;;;;;;;-143.48;81.83;78765.78;5134427;28;19958;-31
2022/11/06 05:33:47;;;;;;;;;;;;;;;-143.48;81.16;78745.97;5134430;28;20361;-31
2022/11/06 05:36:12;;;;;;;;;;;;;;;-143.48;81.18;78749.94;5134301;28;19918;-31
2022/11/06 05:38:38;;;;;;;;;;;;;;;-143.48;81.01;78747.94;5134695;28;19918;-31
2022/11/06 05:41:03;;;;;;;;;;;;;;;-143.48;81.22;78751.91;5134668;28;19957;-30
2022/11/06 05:43:28;;;;;;;;;;;;;;;-143.48;81.07;78745.97;5134306;28;19911;-30
2022/11/06 05:45:53;;;;;;;;;;;;;;;-143.48;81.10;78736.03;5134810;28;19918;-31
2022/11/06 05:48:18;;;;;;;;;;;;;;;-143.48;81.12;78730.09;5134890;28;19935;-31
2022/11/06 05:50:44;;;;;;;;;;;;;;;-143.48;81.89;78738.03;5134568;27;19912;-31
2022/11/06 05:53:09;;;;;;;;;;;;;;;-143.48;82.75;78736.03;5136655;27;20361;-32
2022/11/06 05:55:34;;;;;;;;;;;;;;;-143.48;83.81;78742.00;5137861;27;19911;-31
2022/11/06 05:57:59;;;;;;;;;;;;;;;-143.48;84.97;78742.00;5137767;27;19915;-30
2022/11/06 06:00:24;;;;;;;;;;;;;;;-143.48;85.93;78753.91;5138341;27;19919;-30
2022/11/06 06:02:50;;;;;;;;;;;;;;;-143.48;86.87;78771.75;5138387;27;19961;-31
2022/11/06 06:05:15;;;;;;;;;;;;;;;-143.48;87.75;78773.72;5137730;27;19932;-30
2022/11/06 06:07:40;;;;;;;;;;;;;;;-143.48;87.98;78775.72;5137594;27;20060;-30
2022/11/06 06:10:06;;;;;;;;;;;;;;;-143.48;87.46;78775.72;5137629;27;19912;-30
2022/11/06 06:12:31;;;;;;;;;;;;;;;-143.48;88.39;78789.59;5120014;27;19967;-31
2022/11/06 06:14:56;;;;;;;;;;;;;;;-143.48;87.80;78781.66;5137333;27;19919;-30
2022/11/06 06:17:21;;;;;;;;;;;;;;;-143.48;87.88;78795.53;5138026;27;19915;-31
2022/11/06 06:19:47;;;;;;;;;;;;;;;-143.48;87.69;78791.59;5137647;27;20357;-31
2022/11/06 06:22:12;;;;;;;;;;;;;;;-143.48;87.67;78785.63;5137071;27;19945;-31
2022/11/06 06:24:38;;;;;;;;;;;;;;;-143.48;87.81;78791.59;5137621;27;19915;-30
2022/11/06 06:27:03;;;;;;;;;;;;;;;-143.48;87.72;78787.63;5137507;27;19912;-30
2022/11/06 06:29:29;;;;;;;;;;;;;;;-143.48;87.63;78793.56;5137253;27;20289;-32
2022/11/06 06:31:54;;;;;;;;;;;;;;;-143.48;87.31;78783.66;5136262;27;19911;-31
2022/11/06 06:34:19;;;;;;;;;;;;;;;-143.48;87.48;78793.56;5137262;27;19911;-31
2022/11/06 06:36:47;;;;;;;;;;;;;;;-143.48;87.57;78793.56;5137095;27;20426;-32
2022/11/06 06:39:13;;;;;;;;;;;;;;;-143.48;87.03;78791.59;5137709;27;19922;-30
2022/11/06 06:41:38;;;;;;;;;;;;;;;-143.48;87.12;78795.53;5137272;27;20280;-30
2022/11/06 06:44:03;;;;;;;;;;;;;;;-143.48;87.40;78797.53;5136945;27;20403;-30
2022/11/06 06:46:28;;;;;;;;;;;;;;;-143.48;87.33;78797.53;5136984;27;19911;-30
2022/11/06 06:48:53;;;;;;;;;;;;;;;-143.48;86.66;78795.53;5137475;27;19992;-31
2022/11/06 06:51:19;;;;;;;;;;;;;;;-143.48;87.04;78787.63;5136815;27;20284;-29
2022/11/06 06:53:44;;;;;;;;;;;;;;;-143.48;86.67;78793.56;5137341;27;19911;-29
2022/11/06 06:56:09;;;;;;;;;;;;;;;-143.48;86.66;78785.63;5137054;27;20318;-30
2022/11/06 06:58:34;;;;;;;;;;;;;;;-143.48;86.58;78773.72;5136813;27;19954;-31
2022/11/06 07:01:01;;;;;;;;;;;;;;;-143.48;86.77;78787.63;5136825;27;20406;-32
2022/11/06 07:03:27;;;;;;;;;;;;;;;-143.48;86.73;78765.78;5136372;27;19965;-30
2022/11/06 07:05:52;;;;;;;;;;;;;;;-143.48;85.99;78757.88;5136853;27;19915;-31
2022/11/06 07:08:17;;;;;;;;;;;;;;;-143.48;86.02;78759.84;5136545;27;19918;-31
2022/11/06 07:10:42;;;;;;;;;;;;;;;-143.48;86.20;78757.88;5136464;27;19911;-31
2022/11/06 07:13:07;;;;;;;;;;;;;;;-143.48;86.04;78753.91;5136966;27;19957;-31
2022/11/06 07:15:32;;;;;;;;;;;;;;;-143.48;85.15;78753.91;5136193;27;19919;-32
2022/11/06 07:18:02;;;;;;;;;;;;;;;-143.48;85.30;78749.94;5136570;27;19922;-29
2022/11/06 07:20:27;;;;;;;;;;;;;;;-143.48;85.38;78753.91;5136312;27;19934;-30
2022/11/06 07:22:52;;;;;;;;;;;;;;;-143.48;84.58;78730.09;5136431;27;19911;-30
2022/11/06 07:25:17;;;;;;;;;;;;;;;-143.48;84.34;78728.13;5136129;27;20285;-30
2022/11/06 07:27:43;;;;;;;;;;;;;;;-143.48;84.66;78722.16;5136127;27;19911;-30
2022/11/06 07:30:08;;;;;;;;;;;;;;;-143.48;83.96;78722.16;5136177;27;19976;-30
2022/11/06 07:32:33;;;;;;;;;;;;;;;-143.48;83.90;78724.16;5135726;27;20039;-31
2022/11/06 07:34:59;;;;;;;;;;;;;;;-143.48;84.16;78734.06;5136338;27;19911;-32
2022/11/06 07:37:24;;;;;;;;;;;;;;;-143.48;84.10;78726.13;5117962;27;19968;-30
2022/11/06 07:39:49;;;;;;;;;;;;;;;-143.48;83.89;78732.09;5117524;27;20330;-31
2022/11/06 07:42:14;;;;;;;;;;;;;;;-143.48;83.75;78726.13;5136072;27;19912;-31
2022/11/06 07:44:40;;;;;;;;;;;;;;;-143.48;83.86;78720.19;5136289;27;20345;-30
2022/11/06 07:47:05;;;;;;;;;;;;;;;-143.48;84.00;78714.22;5135612;27;19969;-31
2022/11/06 07:49:30;;;;;;;;;;;;;;;-143.48;83.40;78706.28;5136162;27;20354;-32
2022/11/06 07:51:55;;;;;;;;;;;;;;;-143.48;83.57;78702.31;5135884;27;20368;-30
2022/11/06 07:54:20;;;;;;;;;;;;;;;-143.48;83.08;78696.38;5136068;27;20254;-31
2022/11/06 07:56:46;;;;;;;;;;;;;;;-143.48;82.35;78668.59;5135379;27;20362;-29
2022/11/06 07:59:11;;;;;;;;;;;;;;;-143.48;80.53;78638.84;5135360;27;20006;-32
2022/11/06 08:01:36;;;;;;;;;;;;;;;-143.48;78.98;78579.34;5135206;27;19911;-30
2022/11/06 08:04:01;;;;;;;;;;;;;;;-143.48;78.35;78597.22;5135601;27;20022;-30
2022/11/06 08:06:26;;;;;;;;;;;;;;;-143.48;77.43;78577.38;5116812;27;20398;-30
2022/11/06 08:08:52;;;;;;;;;;;;;;;-143.48;77.48;78543.66;5135177;27;19917;-31
2022/11/06 08:11:17;;;;;;;;;;;;;;;-143.48;77.12;78561.50;5135806;27;19956;-30
2022/11/06 08:13:42;;;;;;;;;;;;;;;-143.48;76.97;78565.47;5135432;27;20327;-32
2022/11/06 08:16:12;;;;;;;;;;;;;;;-143.48;75.58;78535.72;5134223;27;19958;-31
2022/11/06 08:18:38;;;;;;;;;;;;;;;-143.48;74.21;78480.19;5135224;27;19992;-31
2022/11/06 08:21:04;;;;;;;;;;;;;;;-143.48;74.38;78515.91;5135273;27;20332;-31
2022/11/06 08:23:29;;;;;;;;;;;;;;;-143.48;75.50;78541.69;5134995;27;19915;-32
2022/11/06 08:25:55;;;;;;;;;;;;;;;-143.48;75.96;78525.81;5134934;27;20013;-30
2022/11/06 08:28:20;;;;;;;;;;;;;;;-143.48;75.69;78521.84;5135122;27;20059;-30
2022/11/06 08:30:46;;;;;;;;;;;;;;;-143.48;75.85;78529.78;5134772;27;20359;-31
2022/11/06 08:33:11;;;;;;;;;;;;;;;-143.48;75.82;78507.97;5135408;27;19960;-31
2022/11/06 08:35:36;;;;;;;;;;;;;;;-143.48;76.00;78533.75;5135448;27;19911;-31
2022/11/06 08:38:01;;;;;;;;;;;;;;;-143.48;75.73;78515.91;5135017;27;19916;-31
2022/11/06 08:40:27;;;;;;;;;;;;;;;-143.48;75.28;78515.91;5134832;28;19926;-31
2022/11/06 08:42:52;;;;;;;;;;;;;;;-143.48;75.89;78507.97;5134831;28;19919;-31
2022/11/06 08:45:18;;;;;;;;;;;;;;;-143.48;75.44;78517.88;5135244;28;19926;-31
2022/11/06 08:47:43;;;;;;;;;;;;;;;-143.48;75.06;78490.13;5117110;28;19918;-31
2022/11/06 08:50:08;;;;;;;;;;;;;;;-143.48;74.37;78440.53;5134982;28;19911;-31
2022/11/06 08:52:33;;;;;;;;;;;;;;;-143.48;73.53;78438.53;5135023;28;19919;-31
2022/11/06 08:54:58;;;;;;;;;;;;;;;-143.48;73.59;78470.28;5134698;28;19915;-31
2022/11/06 08:57:24;;;;;;;;;;;;;;;-143.48;73.64;78426.66;5135049;28;19919;-32
2022/11/06 08:59:49;;;;;;;;;;;;;;;-143.48;73.03;78442.50;5134793;28;19912;-32
2022/11/06 09:02:14;;;;;;;;;;;;;;;-143.48;73.68;78444.50;5134464;28;20370;-32
2022/11/06 09:04:40;;;;;;;;;;;;;;;-143.48;73.86;78458.38;5116170;28;19992;-31
2022/11/06 09:07:05;;;;;;;;;;;;;;;-143.48;73.04;78396.91;5134567;28;20019;-31
2022/11/06 09:09:33;;;;;;;;;;;;;;;-143.48;72.50;78373.09;5134504;28;19942;-31
2022/11/06 09:11:59;;;;;;;;;;;;;;;-143.48;72.73;78394.91;5134759;28;20003;-30
2022/11/06 09:14:24;;;;;;;;;;;;;;;-143.48;71.99;78388.97;5134740;28;19950;-30
2022/11/06 09:16:50;;;;;;;;;;;;;;;-143.48;71.51;78341.38;5134202;28;20354;-30
2022/11/06 09:19:15;;;;;;;;;;;;;;;-143.48;70.78;78339.38;5134428;28;19919;-30
2022/11/06 09:21:40;;;;;;;;;;;;;;;-143.48;70.03;78291.78;5115954;28;20310;-30
2022/11/06 09:24:05;;;;;;;;;;;;;;;-143.48;69.38;78279.88;5134333;28;19912;-30
2022/11/06 09:26:31;;;;;;;;;;;;;;;-143.48;69.73;78258.06;5136134;27;19993;-30
2022/11/06 09:28:56;;;;;;;;;;;;;;;-143.48;69.25;78254.09;5138589;27;19911;-30
2022/11/06 09:31:21;;;;;;;;;;;;;;;-143.48;69.63;78297.75;5138283;27;20389;-31
2022/11/06 09:33:46;;;;;;;;;;;;;;;-143.48;69.74;78279.88;5138224;27;19912;-30
2022/11/06 09:36:11;;;;;;;;;;;;;;;-143.48;70.77;78343.34;5138847;27;19911;-31
2022/11/06 09:38:37;;;;;;;;;;;;;;;-143.48;70.52;78313.59;5138500;27;19919;-30
2022/11/06 09:41:03;;;;;;;;;;;;;;;-143.48;70.19;78307.66;5119833;27;19973;-30
2022/11/06 09:43:40;;;;;;;;;;;;;;;-143.48;70.62;78313.59;5138722;27;20347;-30
2022/11/06 09:46:12;;;;;;;;;;;;;;;-143.48;70.42;78321.53;5138392;27;19911;-31
2022/11/06 09:48:40;;;;;;;;;;;;;;;-143.48;71.08;78329.47;5136623;27;19918;-31
2022/11/06 09:51:14;;;;;;;;;;;;;;;-143.48;71.19;78313.59;5136951;27;20366;-31
2022/11/06 09:53:44;;;;;;;;;;;;;;;-143.48;70.88;78317.56;5137191;27;19912;-31
2022/11/06 09:56:11;;;;;;;;;;;;;;;-143.48;70.28;78299.72;5137511;27;19912;-31
2022/11/06 09:58:39;;;;;;;;;;;;;;;-143.48;70.13;78289.81;5137363;27;20270;-31
2022/11/06 10:01:09;;;;;;;;;;;;;;;-143.48;70.15;78313.59;5137680;27;20006;-32
2022/11/06 10:03:39;;;;;;;;;;;;;;;-143.48;70.51;78313.59;5137778;27;19918;-31
2022/11/06 10:06:04;;;;;;;;;;;;;;;-143.48;70.48;78315.59;5138270;27;19911;-31
2022/11/06 10:08:30;;;;;;;;;;;;;;;-143.48;70.86;78311.63;5137979;27;19911;-31
2022/11/06 10:11:13;;;;;;;;;;;;;;;-143.48;70.99;78307.66;5137668;27;20389;-31
2022/11/06 10:13:41;;;;;;;;;;;;;;;-143.48;70.73;78323.53;5119147;27;19911;-31
2022/11/06 10:16:09;;;;;;;;;;;;;;;-143.48;71.01;78309.63;5137352;27;19919;-32
2022/11/06 10:18:53;;;;;;;;;;;;;;;-143.48;71.53;78293.78;5137759;27;19922;-31
2022/11/06 10:21:19;;;;;;;;;;;;;;;-143.48;71.94;78289.81;5137603;27;19955;-32
2022/11/06 10:23:47;;;;;;;;;;;;;;;-143.48;72.32;78297.75;5136139;27;19911;-32
2022/11/06 10:26:14;;;;;;;;;;;;;;;-143.48;74.14;78337.41;5137253;27;19911;-32
2022/11/06 10:28:58;;;;;;;;;;;;;;;-143.48;75.20;78341.38;5137338;27;20041;-32
2022/11/06 10:31:32;;;;;;;;;;;;;;;-143.48;75.84;78343.34;5137775;27;19911;-31
2022/11/06 10:34:03;;;;;;;;;;;;;;;-143.48;77.75;78353.28;5137768;27;20342;-31
2022/11/06 10:36:38;;;;;;;;;;;;;;;-143.48;77.22;78337.41;5137826;27;19912;-32
2022/11/06 10:39:10;;;;;;;;;;;;;;;-143.48;77.16;78353.28;5136556;27;19912;-32
2022/11/06 10:41:37;;;;;;;;;;;;;;;-143.48;77.24;78347.31;5137206;27;19911;-33
2022/11/06 10:44:29;;;;;;;;;;;;;;;-143.48;76.54;78325.50;5137249;27;20373;-31
2022/11/06 10:46:58;;;;;;;;;;;;;;;-143.48;76.26;78335.41;5097638;27;20311;-32
2022/11/06 10:49:29;;;;;;;;;;;;;;;-143.48;76.32;78309.63;5136876;27;20391;-32
2022/11/06 10:52:13;;;;;;;;;;;;;;;-143.48;75.87;78325.50;5136781;27;19912;-32
2022/11/06 10:54:48;;;;;;;;;;;;;;;-143.48;76.51;78293.78;5136706;27;19911;-32
2022/11/06 10:57:32;;;;;;;;;;;;;;;-143.48;75.38;78317.56;5136980;27;19965;-29
2022/11/06 10:59:57;;;;;;;;;;;;;;;-143.48;75.87;78327.50;5136874;27;19919;-31
2022/11/06 11:02:26;;;;;;;;;;;;;;;-143.48;76.27;78313.59;5136856;27;19911;-31
2022/11/06 11:04:51;;;;;;;;;;;;;;;-143.48;74.62;78307.66;5137151;27;19960;-32
2022/11/06 11:07:16;;;;;;;;;;;;;;;-143.48;74.88;78305.66;5136420;27;19918;-31
2022/11/06 11:09:43;;;;;;;;;;;;;;;-143.48;74.62;78293.78;5136758;27;19976;-31
2022/11/06 11:12:19;;;;;;;;;;;;;;;-143.48;72.84;78301.72;5136628;27;20363;-30
2022/11/06 11:14:45;;;;;;;;;;;;;;;-143.48;73.25;78271.97;5136341;27;19926;-31
2022/11/06 11:17:18;;;;;;;;;;;;;;;-143.48;72.83;78262.03;5136282;27;19915;-31
2022/11/06 11:19:43;;;;;;;;;;;;;;;-143.48;72.62;78271.97;5135610;27;19926;-31
2022/11/06 11:22:14;;;;;;;;;;;;;;;-143.48;71.79;78289.81;5136734;27;19911;-31
2022/11/06 11:25:00;;;;;;;;;;;;;;;-143.48;72.44;78269.97;5136276;27;19911;-31
2022/11/06 11:27:26;;;;;;;;;;;;;;;-143.48;72.22;78268.00;5117893;27;19912;-31
2022/11/06 11:29:51;;;;;;;;;;;;;;;-143.48;72.10;78319.56;5135422;27;20263;-31
2022/11/06 11:32:18;;;;;;;;;;;;;;;-143.48;72.90;78291.78;5135939;27;19937;-31
2022/11/06 11:34:52;;;;;;;;;;;;;;;-143.48;72.58;78297.75;5136479;27;19912;-32
2022/11/06 11:37:23;;;;;;;;;;;;;;;-143.48;71.92;78285.84;5136099;27;19915;-32
2022/11/06 11:39:48;;;;;;;;;;;;;;;-143.48;71.85;78279.88;5136120;27;19912;-32
2022/11/06 11:42:19;;;;;;;;;;;;;;;-143.48;72.12;78299.72;5135766;27;20331;-33
2022/11/06 11:44:45;;;;;;;;;;;;;;;-143.48;72.08;78295.75;5136057;27;20303;-31
2022/11/06 11:47:21;;;;;;;;;;;;;;;-143.48;71.71;78303.69;5117215;27;19923;-33
2022/11/06 11:49:46;;;;;;;;;;;;;;;-143.48;71.86;78289.81;5136227;27;19916;-31
2022/11/06 11:52:15;;;;;;;;;;;;;;;-143.48;72.32;78297.75;5136316;27;20254;-31
2022/11/06 11:54:45;;;;;;;;;;;;;;;-143.48;72.26;78281.88;5135724;27;19911;-31
2022/11/06 11:57:21;;;;;;;;;;;;;;;-143.48;71.71;78260.06;5135464;27;19915;-32
2022/11/06 11:59:47;;;;;;;;;;;;;;;-143.48;71.44;78277.91;5116942;27;20345;-31
2022/11/06 12:02:18;;;;;;;;;;;;;;;-143.48;71.76;78260.06;5135438;27;19912;-32
2022/11/06 12:04:46;;;;;;;;;;;;;;;-143.48;71.60;78258.06;5135738;27;19912;-31
2022/11/06 12:07:20;;;;;;;;;;;;;;;-143.48;71.29;78258.06;5135958;27;19922;-31
2022/11/06 12:09:46;;;;;;;;;;;;;;;-143.48;70.63;78242.22;5135634;27;19918;-31
2022/11/06 12:12:25;;;;;;;;;;;;;;;-143.48;70.50;78234.28;5135630;27;19923;-32
2022/11/06 12:15:02;;;;;;;;;;;;;;;-143.48;70.39;78240.22;5135345;27;19919;-32
2022/11/06 12:17:29;;;;;;;;;;;;;;;-143.48;69.80;78202.56;5135757;27;19922;-31
2022/11/06 12:19:57;;;;;;;;;;;;;;;-143.48;69.58;78222.38;5135034;27;20002;-32
2022/11/06 12:22:30;;;;;;;;;;;;;;;-143.48;68.93;78208.50;5134709;27;20253;-33
2022/11/06 12:25:00;;;;;;;;;;;;;;;-143.48;69.22;78190.66;5135070;27;19915;-30
2022/11/06 12:27:33;;;;;;;;;;;;;;;-143.48;68.29;78214.44;5134028;27;20346;-33
2022/11/06 12:30:02;;;;;;;;;;;;;;;-143.48;68.68;78200.56;5134678;27;19998;-31
2022/11/06 12:32:30;;;;;;;;;;;;;;;-143.48;68.62;78200.56;5135161;27;19912;-31
2022/11/06 12:35:24;;;;;;;;;;;;;;;-143.48;68.66;78186.69;5135093;27;19966;-31
2022/11/06 12:37:55;;;;;;;;;;;;;;;-143.48;68.50;78170.81;5044088;27;20032;-31
2022/11/06 12:40:24;;;;;;;;;;;;;;;-143.48;68.67;78182.72;5134598;28;20012;-32
2022/11/06 12:43:01;;;;;;;;;;;;;;;-143.48;69.54;78182.72;5134683;28;20361;-32